Terminal Aerodrome Forecast
Issued by NWS

Home | Current Version | Previous Version | Text Only | Print | Product List | Glossary On
Versions: 1 2 3 4 5 6 7 8 9 10 11 12 13 14 15
569
FTUS46 KSEW 251749
TAFHQM
TAF
KHQM 251749Z 2518/2618 27011KT P6SM FEW020
     FM252000 26014KT P6SM SCT200
     FM260800 24010KT 4SM -DZ BR SCT009 OVC014=

USA.gov is the U.S. government's official web portal to all federal, state and local government web resources and services.